sensor_id;sensor_type;location;lat;lon;timestamp;P1;durP1;ratioP1;P2;durP2;ratioP2
59486;SDS011;45298;54.918;73.504;2023-02-15T00:01:32;19.90;;;7.32;;
59486;SDS011;45298;54.918;73.504;2023-02-15T00:04:02;17.33;;;6.82;;
59486;SDS011;45298;54.918;73.504;2023-02-15T00:06:32;25.65;;;5.88;;
59486;SDS011;45298;54.918;73.504;2023-02-15T00:09:01;20.15;;;8.50;;
59486;SDS011;45298;54.918;73.504;2023-02-15T00:11:30;26.08;;;8.68;;
59486;SDS011;45298;54.918;73.504;2023-02-15T00:14:09;27.20;;;9.15;;
59486;SDS011;45298;54.918;73.504;2023-02-15T00:16:40;21.35;;;8.52;;
59486;SDS011;45298;54.918;73.504;2023-02-15T00:19:11;30.88;;;9.70;;
59486;SDS011;45298;54.918;73.504;2023-02-15T00:21:41;34.47;;;9.23;;
59486;SDS011;45298;54.918;73.504;2023-02-15T00:24:13;21.33;;;7.60;;
59486;SDS011;45298;54.918;73.504;2023-02-15T00:26:44;27.45;;;9.75;;
59486;SDS011;45298;54.918;73.504;2023-02-15T00:29:15;35.47;;;11.07;;
59486;SDS011;45298;54.918;73.504;2023-02-15T00:31:45;28.38;;;9.43;;
59486;SDS011;45298;54.918;73.504;2023-02-15T00:34:15;45.63;;;15.88;;
59486;SDS011;45298;54.918;73.504;2023-02-15T00:36:45;52.13;;;14.90;;
59486;SDS011;45298;54.918;73.504;2023-02-15T00:39:15;44.67;;;12.45;;
59486;SDS011;45298;54.918;73.504;2023-02-15T00:41:45;50.05;;;16.63;;
59486;SDS011;45298;54.918;73.504;2023-02-15T00:44:15;25.50;;;10.30;;
59486;SDS011;45298;54.918;73.504;2023-02-15T00:46:44;35.03;;;11.85;;
59486;SDS011;45298;54.918;73.504;2023-02-15T00:49:13;38.08;;;11.88;;
59486;SDS011;45298;54.918;73.504;2023-02-15T00:51:41;40.13;;;14.70;;
59486;SDS011;45298;54.918;73.504;2023-02-15T00:54:10;43.15;;;15.25;;
59486;SDS011;45298;54.918;73.504;2023-02-15T00:56:39;45.45;;;14.13;;
59486;SDS011;45298;54.918;73.504;2023-02-15T00:59:08;57.42;;;17.58;;
59486;SDS011;45298;54.918;73.504;2023-02-15T01:01:37;49.90;;;17.35;;
59486;SDS011;45298;54.918;73.504;2023-02-15T01:04:06;43.92;;;15.18;;
59486;SDS011;45298;54.918;73.504;2023-02-15T01:06:34;65.75;;;19.58;;
59486;SDS011;45298;54.918;73.504;2023-02-15T01:09:04;47.83;;;13.93;;
59486;SDS011;45298;54.918;73.504;2023-02-15T01:11:32;38.97;;;12.23;;
59486;SDS011;45298;54.918;73.504;2023-02-15T01:14:01;42.80;;;13.80;;
59486;SDS011;45298;54.918;73.504;2023-02-15T01:16:31;90.50;;;24.48;;
59486;SDS011;45298;54.918;73.504;2023-02-15T01:18:59;91.22;;;22.45;;
59486;SDS011;45298;54.918;73.504;2023-02-15T01:21:31;88.15;;;24.90;;
59486;SDS011;45298;54.918;73.504;2023-02-15T01:24:02;126.70;;;28.63;;
59486;SDS011;45298;54.918;73.504;2023-02-15T01:26:31;139.13;;;40.58;;
59486;SDS011;45298;54.918;73.504;2023-02-15T01:28:59;133.70;;;36.90;;
59486;SDS011;45298;54.918;73.504;2023-02-15T01:31:28;119.15;;;29.13;;
59486;SDS011;45298;54.918;73.504;2023-02-15T01:33:57;96.40;;;23.88;;
59486;SDS011;45298;54.918;73.504;2023-02-15T01:36:26;96.85;;;25.13;;
59486;SDS011;45298;54.918;73.504;2023-02-15T01:38:55;46.28;;;15.15;;
59486;SDS011;45298;54.918;73.504;2023-02-15T01:41:24;68.30;;;21.20;;
59486;SDS011;45298;54.918;73.504;2023-02-15T01:44:00;43.97;;;14.82;;
59486;SDS011;45298;54.918;73.504;2023-02-15T01:46:35;32.08;;;12.40;;
59486;SDS011;45298;54.918;73.504;2023-02-15T01:49:16;33.97;;;13.70;;
59486;SDS011;45298;54.918;73.504;2023-02-15T01:51:48;27.27;;;9.10;;
59486;SDS011;45298;54.918;73.504;2023-02-15T01:54:27;40.03;;;12.90;;
59486;SDS011;45298;54.918;73.504;2023-02-15T01:57:01;41.05;;;15.00;;
59486;SDS011;45298;54.918;73.504;2023-02-15T01:59:33;39.80;;;12.95;;
59486;SDS011;45298;54.918;73.504;2023-02-15T02:02:04;42.67;;;14.88;;
59486;SDS011;45298;54.918;73.504;2023-02-15T02:04:40;42.10;;;15.57;;
59486;SDS011;45298;54.918;73.504;2023-02-15T02:07:12;46.33;;;15.55;;
59486;SDS011;45298;54.918;73.504;2023-02-15T02:09:44;53.33;;;17.60;;
59486;SDS011;45298;54.918;73.504;2023-02-15T02:12:16;55.03;;;14.52;;
59486;SDS011;45298;54.918;73.504;2023-02-15T02:14:47;52.38;;;16.65;;
59486;SDS011;45298;54.918;73.504;2023-02-15T02:20:43;108.80;;;28.25;;
59486;SDS011;45298;54.918;73.504;2023-02-15T02:39:41;121.00;;;34.50;;
59486;SDS011;45298;54.918;73.504;2023-02-15T02:50:21;84.57;;;24.48;;
59486;SDS011;45298;54.918;73.504;2023-02-15T02:52:53;51.53;;;15.77;;
59486;SDS011;45298;54.918;73.504;2023-02-15T02:55:25;64.47;;;19.65;;
59486;SDS011;45298;54.918;73.504;2023-02-15T03:01:13;62.80;;;21.13;;
59486;SDS011;45298;54.918;73.504;2023-02-15T03:04:19;57.28;;;18.17;;
59486;SDS011;45298;54.918;73.504;2023-02-15T03:07:00;32.15;;;12.02;;
59486;SDS011;45298;54.918;73.504;2023-02-15T03:09:32;39.13;;;12.75;;
59486;SDS011;45298;54.918;73.504;2023-02-15T03:12:18;62.65;;;18.45;;
59486;SDS011;45298;54.918;73.504;2023-02-15T03:14:55;63.88;;;17.30;;
59486;SDS011;45298;54.918;73.504;2023-02-15T03:17:35;64.07;;;16.95;;
59486;SDS011;45298;54.918;73.504;2023-02-15T03:20:10;64.00;;;21.30;;
59486;SDS011;45298;54.918;73.504;2023-02-15T03:22:49;52.47;;;15.82;;
59486;SDS011;45298;54.918;73.504;2023-02-15T03:25:25;89.93;;;28.42;;
59486;SDS011;45298;54.918;73.504;2023-02-15T03:28:05;56.72;;;18.48;;
59486;SDS011;45298;54.918;73.504;2023-02-15T03:30:37;44.60;;;13.77;;
59486;SDS011;45298;54.918;73.504;2023-02-15T03:33:09;55.75;;;17.88;;
59486;SDS011;45298;54.918;73.504;2023-02-15T03:35:43;103.22;;;30.27;;
59486;SDS011;45298;54.918;73.504;2023-02-15T03:38:22;91.25;;;29.02;;
59486;SDS011;45298;54.918;73.504;2023-02-15T03:41:04;64.28;;;20.05;;
59486;SDS011;45298;54.918;73.504;2023-02-15T03:46:39;51.25;;;15.75;;
59486;SDS011;45298;54.918;73.504;2023-02-15T03:52:27;63.10;;;19.45;;
59486;SDS011;45298;54.918;73.504;2023-02-15T03:54:58;37.83;;;12.32;;
59486;SDS011;45298;54.918;73.504;2023-02-15T03:57:27;58.22;;;17.95;;
59486;SDS011;45298;54.918;73.504;2023-02-15T04:05:43;36.33;;;13.05;;
59486;SDS011;45298;54.918;73.504;2023-02-15T04:08:12;39.58;;;12.68;;
59486;SDS011;45298;54.918;73.504;2023-02-15T04:10:41;20.40;;;5.03;;
59486;SDS011;45298;54.918;73.504;2023-02-15T04:16:00;42.13;;;11.48;;
59486;SDS011;45298;54.918;73.504;2023-02-15T04:18:36;58.05;;;16.08;;
59486;SDS011;45298;54.918;73.504;2023-02-15T04:21:26;24.77;;;9.30;;
59486;SDS011;45298;54.918;73.504;2023-02-15T04:24:15;103.82;;;28.40;;
59486;SDS011;45298;54.918;73.504;2023-02-15T04:27:03;69.38;;;17.83;;
59486;SDS011;45298;54.918;73.504;2023-02-15T04:29:33;68.57;;;18.10;;
59486;SDS011;45298;54.918;73.504;2023-02-15T04:32:02;63.70;;;17.35;;
59486;SDS011;45298;54.918;73.504;2023-02-15T04:34:31;34.65;;;10.63;;
59486;SDS011;45298;54.918;73.504;2023-02-15T04:37:00;40.72;;;11.73;;
59486;SDS011;45298;54.918;73.504;2023-02-15T04:39:29;51.92;;;13.57;;
59486;SDS011;45298;54.918;73.504;2023-02-15T04:42:01;43.47;;;10.43;;
59486;SDS011;45298;54.918;73.504;2023-02-15T04:44:30;38.72;;;12.82;;
59486;SDS011;45298;54.918;73.504;2023-02-15T04:46:59;80.72;;;20.20;;
59486;SDS011;45298;54.918;73.504;2023-02-15T04:49:28;41.60;;;13.13;;
59486;SDS011;45298;54.918;73.504;2023-02-15T04:51:57;42.35;;;11.57;;
59486;SDS011;45298;54.918;73.504;2023-02-15T04:54:28;83.07;;;19.98;;
59486;SDS011;45298;54.918;73.504;2023-02-15T04:56:57;53.05;;;16.67;;
59486;SDS011;45298;54.918;73.504;2023-02-15T04:59:25;67.50;;;15.57;;
59486;SDS011;45298;54.918;73.504;2023-02-15T05:01:54;68.72;;;17.42;;
59486;SDS011;45298;54.918;73.504;2023-02-15T05:04:23;71.20;;;16.45;;
59486;SDS011;45298;54.918;73.504;2023-02-15T05:06:52;51.10;;;12.98;;
59486;SDS011;45298;54.918;73.504;2023-02-15T05:09:20;61.53;;;16.40;;
59486;SDS011;45298;54.918;73.504;2023-02-15T05:11:49;39.35;;;13.02;;
59486;SDS011;45298;54.918;73.504;2023-02-15T05:14:18;34.15;;;10.55;;
59486;SDS011;45298;54.918;73.504;2023-02-15T05:16:49;49.72;;;13.55;;
59486;SDS011;45298;54.918;73.504;2023-02-15T05:19:18;82.15;;;19.52;;
59486;SDS011;45298;54.918;73.504;2023-02-15T05:21:46;52.10;;;15.15;;
59486;SDS011;45298;54.918;73.504;2023-02-15T05:24:15;64.35;;;16.55;;
59486;SDS011;45298;54.918;73.504;2023-02-15T05:27:02;46.90;;;13.85;;
59486;SDS011;45298;54.918;73.504;2023-02-15T05:29:49;49.13;;;14.10;;
59486;SDS011;45298;54.918;73.504;2023-02-15T05:32:18;55.60;;;15.38;;
59486;SDS011;45298;54.918;73.504;2023-02-15T05:34:49;62.20;;;15.40;;
59486;SDS011;45298;54.918;73.504;2023-02-15T05:37:18;39.72;;;11.55;;
59486;SDS011;45298;54.918;73.504;2023-02-15T05:39:47;34.67;;;10.93;;
59486;SDS011;45298;54.918;73.504;2023-02-15T05:42:16;63.03;;;18.70;;
59486;SDS011;45298;54.918;73.504;2023-02-15T05:44:45;40.95;;;12.55;;
59486;SDS011;45298;54.918;73.504;2023-02-15T05:47:18;52.13;;;13.73;;
59486;SDS011;45298;54.918;73.504;2023-02-15T05:49:46;46.63;;;14.82;;
59486;SDS011;45298;54.918;73.504;2023-02-15T05:52:18;59.80;;;17.55;;
59486;SDS011;45298;54.918;73.504;2023-02-15T05:54:47;73.45;;;20.80;;
59486;SDS011;45298;54.918;73.504;2023-02-15T05:57:15;43.38;;;12.27;;
59486;SDS011;45298;54.918;73.504;2023-02-15T05:59:44;48.35;;;12.85;;
59486;SDS011;45298;54.918;73.504;2023-02-15T06:02:13;70.93;;;18.20;;
59486;SDS011;45298;54.918;73.504;2023-02-15T06:04:42;76.72;;;20.40;;
59486;SDS011;45298;54.918;73.504;2023-02-15T06:07:10;72.25;;;19.83;;
59486;SDS011;45298;54.918;73.504;2023-02-15T06:09:41;63.58;;;18.88;;
59486;SDS011;45298;54.918;73.504;2023-02-15T06:12:10;67.05;;;16.27;;
59486;SDS011;45298;54.918;73.504;2023-02-15T06:14:39;75.45;;;19.55;;
59486;SDS011;45298;54.918;73.504;2023-02-15T06:17:08;57.08;;;17.67;;
59486;SDS011;45298;54.918;73.504;2023-02-15T06:19:36;39.10;;;12.73;;
59486;SDS011;45298;54.918;73.504;2023-02-15T06:22:05;47.65;;;15.13;;
59486;SDS011;45298;54.918;73.504;2023-02-15T06:24:34;58.13;;;14.85;;
59486;SDS011;45298;54.918;73.504;2023-02-15T06:27:03;52.75;;;14.27;;
59486;SDS011;45298;54.918;73.504;2023-02-15T06:29:32;24.50;;;9.63;;
59486;SDS011;45298;54.918;73.504;2023-02-15T06:32:00;45.58;;;11.88;;
59486;SDS011;45298;54.918;73.504;2023-02-15T06:34:29;56.15;;;15.30;;
59486;SDS011;45298;54.918;73.504;2023-02-15T06:36:58;24.92;;;9.23;;
59486;SDS011;45298;54.918;73.504;2023-02-15T06:39:27;50.92;;;15.05;;
59486;SDS011;45298;54.918;73.504;2023-02-15T06:41:57;54.15;;;12.85;;
59486;SDS011;45298;54.918;73.504;2023-02-15T06:44:25;58.45;;;15.48;;
59486;SDS011;45298;54.918;73.504;2023-02-15T06:46:54;55.22;;;13.98;;
59486;SDS011;45298;54.918;73.504;2023-02-15T06:49:23;52.75;;;14.45;;
59486;SDS011;45298;54.918;73.504;2023-02-15T06:51:51;60.20;;;14.77;;
59486;SDS011;45298;54.918;73.504;2023-02-15T06:54:25;62.10;;;16.17;;
59486;SDS011;45298;54.918;73.504;2023-02-15T06:56:54;65.55;;;16.60;;
59486;SDS011;45298;54.918;73.504;2023-02-15T06:59:23;58.75;;;14.60;;
59486;SDS011;45298;54.918;73.504;2023-02-15T07:04:25;45.17;;;11.18;;
59486;SDS011;45298;54.918;73.504;2023-02-15T07:06:59;63.70;;;13.40;;
59486;SDS011;45298;54.918;73.504;2023-02-15T07:09:28;67.50;;;14.63;;
59486;SDS011;45298;54.918;73.504;2023-02-15T07:11:56;58.88;;;14.50;;
59486;SDS011;45298;54.918;73.504;2023-02-15T07:14:44;65.05;;;15.75;;
59486;SDS011;45298;54.918;73.504;2023-02-15T07:17:15;64.95;;;15.27;;
59486;SDS011;45298;54.918;73.504;2023-02-15T07:20:05;56.20;;;13.88;;
59486;SDS011;45298;54.918;73.504;2023-02-15T07:22:40;45.80;;;12.48;;
59486;SDS011;45298;54.918;73.504;2023-02-15T07:25:09;38.95;;;12.00;;
59486;SDS011;45298;54.918;73.504;2023-02-15T07:27:39;51.08;;;12.48;;
59486;SDS011;45298;54.918;73.504;2023-02-15T07:30:10;66.20;;;14.50;;
59486;SDS011;45298;54.918;73.504;2023-02-15T07:32:40;53.55;;;13.68;;
59486;SDS011;45298;54.918;73.504;2023-02-15T07:35:32;47.35;;;13.43;;
59486;SDS011;45298;54.918;73.504;2023-02-15T07:38:01;61.22;;;15.60;;
59486;SDS011;45298;54.918;73.504;2023-02-15T07:40:30;48.83;;;13.15;;
59486;SDS011;45298;54.918;73.504;2023-02-15T07:42:59;64.40;;;18.58;;
59486;SDS011;45298;54.918;73.504;2023-02-15T07:45:27;44.95;;;12.18;;
59486;SDS011;45298;54.918;73.504;2023-02-15T07:47:57;22.52;;;7.28;;
59486;SDS011;45298;54.918;73.504;2023-02-15T07:50:28;42.17;;;11.35;;
59486;SDS011;45298;54.918;73.504;2023-02-15T07:52:58;43.65;;;12.40;;
59486;SDS011;45298;54.918;73.504;2023-02-15T07:55:29;31.50;;;10.38;;
59486;SDS011;45298;54.918;73.504;2023-02-15T07:57:58;37.38;;;12.60;;
59486;SDS011;45298;54.918;73.504;2023-02-15T08:00:27;52.47;;;13.77;;
59486;SDS011;45298;54.918;73.504;2023-02-15T08:02:57;51.35;;;15.38;;
59486;SDS011;45298;54.918;73.504;2023-02-15T08:05:42;55.88;;;13.35;;
59486;SDS011;45298;54.918;73.504;2023-02-15T08:08:12;40.05;;;8.98;;
59486;SDS011;45298;54.918;73.504;2023-02-15T08:11:00;44.95;;;11.23;;
59486;SDS011;45298;54.918;73.504;2023-02-15T08:16:41;29.38;;;9.55;;
59486;SDS011;45298;54.918;73.504;2023-02-15T08:19:25;38.45;;;11.77;;
59486;SDS011;45298;54.918;73.504;2023-02-15T08:22:02;50.08;;;12.25;;
59486;SDS011;45298;54.918;73.504;2023-02-15T08:24:33;34.50;;;10.52;;
59486;SDS011;45298;54.918;73.504;2023-02-15T08:27:06;35.10;;;11.88;;
59486;SDS011;45298;54.918;73.504;2023-02-15T08:29:36;35.88;;;10.82;;
59486;SDS011;45298;54.918;73.504;2023-02-15T08:32:08;43.63;;;11.30;;
59486;SDS011;45298;54.918;73.504;2023-02-15T08:34:39;23.80;;;7.18;;
59486;SDS011;45298;54.918;73.504;2023-02-15T08:37:09;34.75;;;10.98;;
59486;SDS011;45298;54.918;73.504;2023-02-15T08:39:38;41.67;;;11.40;;
59486;SDS011;45298;54.918;73.504;2023-02-15T08:42:07;38.42;;;11.77;;
59486;SDS011;45298;54.918;73.504;2023-02-15T08:44:37;33.85;;;11.35;;
59486;SDS011;45298;54.918;73.504;2023-02-15T08:47:06;40.33;;;11.27;;
59486;SDS011;45298;54.918;73.504;2023-02-15T08:49:35;38.97;;;12.68;;
59486;SDS011;45298;54.918;73.504;2023-02-15T08:52:03;26.63;;;9.43;;
59486;SDS011;45298;54.918;73.504;2023-02-15T08:54:32;33.80;;;10.98;;
59486;SDS011;45298;54.918;73.504;2023-02-15T08:57:01;37.08;;;10.27;;
59486;SDS011;45298;54.918;73.504;2023-02-15T08:59:33;36.15;;;11.75;;
59486;SDS011;45298;54.918;73.504;2023-02-15T09:02:01;37.58;;;11.65;;
59486;SDS011;45298;54.918;73.504;2023-02-15T09:04:31;42.78;;;13.07;;
59486;SDS011;45298;54.918;73.504;2023-02-15T09:07:03;33.38;;;11.02;;
59486;SDS011;45298;54.918;73.504;2023-02-15T09:09:33;41.85;;;12.48;;
59486;SDS011;45298;54.918;73.504;2023-02-15T09:12:02;39.03;;;10.77;;
59486;SDS011;45298;54.918;73.504;2023-02-15T09:14:31;35.53;;;11.02;;
59486;SDS011;45298;54.918;73.504;2023-02-15T09:17:02;34.45;;;10.68;;
59486;SDS011;45298;54.918;73.504;2023-02-15T09:19:31;36.30;;;10.50;;
59486;SDS011;45298;54.918;73.504;2023-02-15T09:22:00;32.35;;;11.63;;
59486;SDS011;45298;54.918;73.504;2023-02-15T09:24:31;31.52;;;10.73;;
59486;SDS011;45298;54.918;73.504;2023-02-15T09:27:04;37.40;;;9.65;;
59486;SDS011;45298;54.918;73.504;2023-02-15T09:29:33;43.25;;;11.77;;
59486;SDS011;45298;54.918;73.504;2023-02-15T09:32:02;25.55;;;8.88;;
59486;SDS011;45298;54.918;73.504;2023-02-15T09:34:32;27.10;;;9.15;;
59486;SDS011;45298;54.918;73.504;2023-02-15T09:37:01;41.67;;;13.15;;
59486;SDS011;45298;54.918;73.504;2023-02-15T09:39:30;41.83;;;12.73;;
59486;SDS011;45298;54.918;73.504;2023-02-15T09:45:13;28.98;;;10.68;;
59486;SDS011;45298;54.918;73.504;2023-02-15T09:48:16;25.30;;;9.40;;
59486;SDS011;45298;54.918;73.504;2023-02-15T09:54:21;37.53;;;11.15;;
59486;SDS011;45298;54.918;73.504;2023-02-15T10:12:01;34.03;;;10.77;;
59486;SDS011;45298;54.918;73.504;2023-02-15T10:17:49;39.17;;;13.65;;
59486;SDS011;45298;54.918;73.504;2023-02-15T10:24:13;30.83;;;9.15;;
59486;SDS011;45298;54.918;73.504;2023-02-15T10:26:56;22.45;;;6.90;;
59486;SDS011;45298;54.918;73.504;2023-02-15T10:29:52;39.03;;;10.88;;
59486;SDS011;45298;54.918;73.504;2023-02-15T10:32:30;33.80;;;9.82;;
59486;SDS011;45298;54.918;73.504;2023-02-15T10:35:13;47.85;;;11.68;;
59486;SDS011;45298;54.918;73.504;2023-02-15T10:38:09;40.80;;;13.95;;
59486;SDS011;45298;54.918;73.504;2023-02-15T10:40:45;24.33;;;9.32;;
59486;SDS011;45298;54.918;73.504;2023-02-15T10:43:35;35.25;;;12.15;;
59486;SDS011;45298;54.918;73.504;2023-02-15T10:52:07;34.10;;;10.75;;
59486;SDS011;45298;54.918;73.504;2023-02-15T10:57:47;39.38;;;11.82;;
59486;SDS011;45298;54.918;73.504;2023-02-15T11:00:33;45.83;;;14.13;;
59486;SDS011;45298;54.918;73.504;2023-02-15T11:06:22;29.20;;;9.35;;
59486;SDS011;45298;54.918;73.504;2023-02-15T11:08:59;30.60;;;10.45;;
59486;SDS011;45298;54.918;73.504;2023-02-15T11:11:32;27.52;;;8.02;;
59486;SDS011;45298;54.918;73.504;2023-02-15T11:14:14;28.42;;;9.25;;
59486;SDS011;45298;54.918;73.504;2023-02-15T11:16:51;24.38;;;9.07;;
59486;SDS011;45298;54.918;73.504;2023-02-15T11:19:32;30.27;;;11.00;;
59486;SDS011;45298;54.918;73.504;2023-02-15T11:22:05;45.45;;;11.55;;
59486;SDS011;45298;54.918;73.504;2023-02-15T11:24:37;38.85;;;11.82;;
59486;SDS011;45298;54.918;73.504;2023-02-15T11:32:32;60.80;;;17.48;;
59486;SDS011;45298;54.918;73.504;2023-02-15T11:35:18;58.08;;;16.17;;
59486;SDS011;45298;54.918;73.504;2023-02-15T11:40:51;35.78;;;13.02;;
59486;SDS011;45298;54.918;73.504;2023-02-15T11:45:58;38.97;;;12.40;;
59486;SDS011;45298;54.918;73.504;2023-02-15T11:48:30;66.38;;;16.80;;
59486;SDS011;45298;54.918;73.504;2023-02-15T11:51:01;35.22;;;10.50;;
59486;SDS011;45298;54.918;73.504;2023-02-15T11:53:36;33.97;;;12.50;;
59486;SDS011;45298;54.918;73.504;2023-02-15T11:56:10;57.83;;;16.77;;
59486;SDS011;45298;54.918;73.504;2023-02-15T11:58:49;51.47;;;16.38;;
59486;SDS011;45298;54.918;73.504;2023-02-15T12:01:31;80.70;;;24.02;;
59486;SDS011;45298;54.918;73.504;2023-02-15T12:06:35;58.20;;;16.45;;
59486;SDS011;45298;54.918;73.504;2023-02-15T12:12:43;78.28;;;20.67;;
59486;SDS011;45298;54.918;73.504;2023-02-15T12:15:05;74.93;;;19.48;;
59486;SDS011;45298;54.918;73.504;2023-02-15T12:17:38;129.50;;;33.53;;
59486;SDS011;45298;54.918;73.504;2023-02-15T12:23:14;82.55;;;19.65;;
59486;SDS011;45298;54.918;73.504;2023-02-15T12:25:42;55.42;;;17.92;;
59486;SDS011;45298;54.918;73.504;2023-02-15T12:28:35;82.20;;;18.65;;
59486;SDS011;45298;54.918;73.504;2023-02-15T12:31:20;37.95;;;13.90;;
59486;SDS011;45298;54.918;73.504;2023-02-15T12:33:53;81.82;;;19.92;;
59486;SDS011;45298;54.918;73.504;2023-02-15T12:36:29;78.10;;;19.02;;
59486;SDS011;45298;54.918;73.504;2023-02-15T12:42:25;137.30;;;33.53;;
59486;SDS011;45298;54.918;73.504;2023-02-15T12:44:57;70.05;;;17.55;;
59486;SDS011;45298;54.918;73.504;2023-02-15T12:47:31;57.20;;;18.20;;
59486;SDS011;45298;54.918;73.504;2023-02-15T12:50:05;90.20;;;22.70;;
59486;SDS011;45298;54.918;73.504;2023-02-15T12:52:45;88.43;;;24.85;;
59486;SDS011;45298;54.918;73.504;2023-02-15T12:55:20;111.03;;;26.20;;
59486;SDS011;45298;54.918;73.504;2023-02-15T12:58:05;87.03;;;22.23;;
59486;SDS011;45298;54.918;73.504;2023-02-15T13:00:35;93.72;;;25.00;;
59486;SDS011;45298;54.918;73.504;2023-02-15T13:03:04;68.75;;;21.67;;
59486;SDS011;45298;54.918;73.504;2023-02-15T13:05:44;56.88;;;17.08;;
59486;SDS011;45298;54.918;73.504;2023-02-15T13:08:20;50.53;;;15.32;;
59486;SDS011;45298;54.918;73.504;2023-02-15T13:13:31;87.00;;;26.80;;
59486;SDS011;45298;54.918;73.504;2023-02-15T13:16:06;88.47;;;25.08;;
59486;SDS011;45298;54.918;73.504;2023-02-15T13:18:41;75.60;;;23.00;;
59486;SDS011;45298;54.918;73.504;2023-02-15T13:21:16;64.60;;;18.95;;
59486;SDS011;45298;54.918;73.504;2023-02-15T13:23:53;65.50;;;20.42;;
59486;SDS011;45298;54.918;73.504;2023-02-15T13:26:29;58.47;;;18.55;;
59486;SDS011;45298;54.918;73.504;2023-02-15T13:29:10;72.03;;;20.13;;
59486;SDS011;45298;54.918;73.504;2023-02-15T13:31:45;63.50;;;18.88;;
59486;SDS011;45298;54.918;73.504;2023-02-15T13:34:28;65.95;;;19.73;;
59486;SDS011;45298;54.918;73.504;2023-02-15T13:37:20;75.28;;;20.95;;
59486;SDS011;45298;54.918;73.504;2023-02-15T13:46:06;76.82;;;23.85;;
59486;SDS011;45298;54.918;73.504;2023-02-15T13:48:41;103.68;;;26.90;;
59486;SDS011;45298;54.918;73.504;2023-02-15T13:51:42;139.88;;;39.38;;
59486;SDS011;45298;54.918;73.504;2023-02-15T13:57:19;178.13;;;46.70;;
59486;SDS011;45298;54.918;73.504;2023-02-15T14:00:11;281.98;;;75.43;;
59486;SDS011;45298;54.918;73.504;2023-02-15T14:20:02;85.82;;;26.10;;
59486;SDS011;45298;54.918;73.504;2023-02-15T14:30:58;136.65;;;34.83;;
59486;SDS011;45298;54.918;73.504;2023-02-15T14:33:41;129.52;;;32.88;;
59486;SDS011;45298;54.918;73.504;2023-02-15T14:36:21;114.78;;;30.42;;
59486;SDS011;45298;54.918;73.504;2023-02-15T14:42:12;137.87;;;34.23;;
59486;SDS011;45298;54.918;73.504;2023-02-15T14:44:56;103.78;;;30.40;;
59486;SDS011;45298;54.918;73.504;2023-02-15T14:47:42;106.50;;;30.00;;
59486;SDS011;45298;54.918;73.504;2023-02-15T14:53:22;107.05;;;26.15;;
59486;SDS011;45298;54.918;73.504;2023-02-15T14:56:13;99.57;;;26.73;;
59486;SDS011;45298;54.918;73.504;2023-02-15T15:01:27;160.80;;;38.72;;
59486;SDS011;45298;54.918;73.504;2023-02-15T15:04:03;235.45;;;60.72;;
59486;SDS011;45298;54.918;73.504;2023-02-15T15:07:00;225.35;;;56.50;;
59486;SDS011;45298;54.918;73.504;2023-02-15T15:09:35;188.85;;;46.17;;
59486;SDS011;45298;54.918;73.504;2023-02-15T15:14:51;93.88;;;27.88;;
59486;SDS011;45298;54.918;73.504;2023-02-15T15:22:36;66.13;;;18.65;;
59486;SDS011;45298;54.918;73.504;2023-02-15T15:25:11;52.75;;;17.80;;
59486;SDS011;45298;54.918;73.504;2023-02-15T15:28:03;62.17;;;16.67;;
59486;SDS011;45298;54.918;73.504;2023-02-15T15:33:16;45.28;;;16.45;;
59486;SDS011;45298;54.918;73.504;2023-02-15T15:42:37;68.53;;;21.15;;
59486;SDS011;45298;54.918;73.504;2023-02-15T15:48:38;86.38;;;25.08;;
59486;SDS011;45298;54.918;73.504;2023-02-15T15:51:18;95.10;;;27.02;;
59486;SDS011;45298;54.918;73.504;2023-02-15T15:53:49;116.30;;;28.02;;
59486;SDS011;45298;54.918;73.504;2023-02-15T15:56:31;88.95;;;25.17;;
59486;SDS011;45298;54.918;73.504;2023-02-15T15:59:04;133.15;;;33.85;;
59486;SDS011;45298;54.918;73.504;2023-02-15T16:01:42;167.00;;;42.17;;
59486;SDS011;45298;54.918;73.504;2023-02-15T16:04:13;103.43;;;24.67;;
59486;SDS011;45298;54.918;73.504;2023-02-15T16:06:52;101.72;;;24.50;;
59486;SDS011;45298;54.918;73.504;2023-02-15T16:09:23;122.28;;;27.25;;
59486;SDS011;45298;54.918;73.504;2023-02-15T16:11:56;110.25;;;27.05;;
59486;SDS011;45298;54.918;73.504;2023-02-15T16:14:31;129.85;;;30.30;;
59486;SDS011;45298;54.918;73.504;2023-02-15T16:17:05;86.95;;;26.67;;
59486;SDS011;45298;54.918;73.504;2023-02-15T16:19:43;106.28;;;29.40;;
59486;SDS011;45298;54.918;73.504;2023-02-15T16:22:23;147.68;;;39.80;;
59486;SDS011;45298;54.918;73.504;2023-02-15T16:27:38;121.00;;;34.92;;
59486;SDS011;45298;54.918;73.504;2023-02-15T16:30:29;98.75;;;26.92;;
59486;SDS011;45298;54.918;73.504;2023-02-15T16:33:08;121.78;;;36.05;;
59486;SDS011;45298;54.918;73.504;2023-02-15T16:35:54;119.03;;;33.33;;
59486;SDS011;45298;54.918;73.504;2023-02-15T16:41:20;136.70;;;35.65;;
59486;SDS011;45298;54.918;73.504;2023-02-15T16:43:57;179.85;;;43.60;;
59486;SDS011;45298;54.918;73.504;2023-02-15T16:46:42;163.55;;;38.85;;
59486;SDS011;45298;54.918;73.504;2023-02-15T16:49:21;122.72;;;33.53;;
59486;SDS011;45298;54.918;73.504;2023-02-15T16:51:59;109.75;;;28.70;;
59486;SDS011;45298;54.918;73.504;2023-02-15T16:54:36;127.75;;;31.52;;
59486;SDS011;45298;54.918;73.504;2023-02-15T16:57:20;160.87;;;40.33;;
59486;SDS011;45298;54.918;73.504;2023-02-15T16:59:52;153.77;;;38.70;;
59486;SDS011;45298;54.918;73.504;2023-02-15T17:02:25;141.07;;;36.05;;
59486;SDS011;45298;54.918;73.504;2023-02-15T17:05:18;102.85;;;28.88;;
59486;SDS011;45298;54.918;73.504;2023-02-15T17:08:04;87.18;;;23.65;;
59486;SDS011;45298;54.918;73.504;2023-02-15T17:10:35;77.97;;;23.50;;
59486;SDS011;45298;54.918;73.504;2023-02-15T17:13:10;86.03;;;22.05;;
59486;SDS011;45298;54.918;73.504;2023-02-15T17:16:27;69.13;;;19.42;;
59486;SDS011;45298;54.918;73.504;2023-02-15T17:18:31;66.05;;;20.00;;
59486;SDS011;45298;54.918;73.504;2023-02-15T17:23:42;110.95;;;25.17;;
59486;SDS011;45298;54.918;73.504;2023-02-15T17:28:51;127.80;;;34.10;;
59486;SDS011;45298;54.918;73.504;2023-02-15T17:31:25;130.23;;;31.15;;
59486;SDS011;45298;54.918;73.504;2023-02-15T17:34:01;81.03;;;24.77;;
59486;SDS011;45298;54.918;73.504;2023-02-15T17:36:31;71.32;;;19.27;;
59486;SDS011;45298;54.918;73.504;2023-02-15T17:39:03;89.05;;;22.27;;
59486;SDS011;45298;54.918;73.504;2023-02-15T17:41:36;103.93;;;27.30;;
59486;SDS011;45298;54.918;73.504;2023-02-15T17:44:05;338.50;;;74.03;;
59486;SDS011;45298;54.918;73.504;2023-02-15T17:46:36;274.17;;;70.78;;
59486;SDS011;45298;54.918;73.504;2023-02-15T17:49:06;265.48;;;61.22;;
59486;SDS011;45298;54.918;73.504;2023-02-15T17:51:35;128.93;;;32.72;;
59486;SDS011;45298;54.918;73.504;2023-02-15T17:54:04;105.65;;;25.77;;
59486;SDS011;45298;54.918;73.504;2023-02-15T17:56:51;207.13;;;44.70;;
59486;SDS011;45298;54.918;73.504;2023-02-15T17:59:20;115.93;;;30.58;;
59486;SDS011;45298;54.918;73.504;2023-02-15T18:01:50;114.22;;;28.38;;